createdAt,value
2019-05-11T00:01:33.926Z,11.81
2019-05-11T00:04:03.221Z,11.85
2019-05-11T00:06:32.746Z,11.88
2019-05-11T00:09:02.073Z,11.81
2019-05-11T00:11:31.485Z,11.80
2019-05-11T00:14:01.094Z,11.71
2019-05-11T00:16:30.343Z,11.78
2019-05-11T00:18:59.632Z,11.79
2019-05-11T00:21:28.905Z,11.80
2019-05-11T00:23:58.439Z,11.82
2019-05-11T00:26:27.755Z,11.85
2019-05-11T00:28:57.036Z,11.88
2019-05-11T00:31:26.357Z,11.91
2019-05-11T00:33:55.677Z,11.90
2019-05-11T00:36:25.324Z,11.95
2019-05-11T00:38:54.647Z,11.97
2019-05-11T00:41:23.927Z,11.94
2019-05-11T00:43:53.211Z,11.98
2019-05-11T00:46:22.510Z,11.99
2019-05-11T00:48:51.808Z,11.83
2019-05-11T00:51:21.091Z,11.78
2019-05-11T00:53:50.388Z,11.55
2019-05-11T00:56:19.681Z,11.53
2019-05-11T00:58:50.897Z,11.53
2019-05-11T01:01:19.958Z,11.49
2019-05-11T01:03:49.213Z,11.53
2019-05-11T01:06:18.522Z,11.56
2019-05-11T01:08:47.788Z,11.63
2019-05-11T01:11:17.101Z,11.63
2019-05-11T01:13:46.367Z,11.68
2019-05-11T01:16:15.653Z,11.67
2019-05-11T01:18:44.956Z,11.61
2019-05-11T01:21:14.257Z,11.52
2019-05-11T01:23:43.503Z,11.49
2019-05-11T01:26:13.081Z,11.38
2019-05-11T01:28:42.343Z,11.35
2019-05-11T01:31:11.619Z,11.29
2019-05-11T01:33:40.921Z,11.30
2019-05-11T01:36:10.519Z,11.35
2019-05-11T01:38:39.761Z,11.43
2019-05-11T01:41:09.039Z,11.44
2019-05-11T01:43:38.304Z,11.37
2019-05-11T01:46:07.591Z,11.37
2019-05-11T01:48:38.500Z,11.41
2019-05-11T01:51:07.753Z,11.43
2019-05-11T01:53:37.038Z,11.51
2019-05-11T01:56:06.315Z,11.53
2019-05-11T01:58:35.520Z,11.56
2019-05-11T02:01:04.826Z,11.55
2019-05-11T02:03:34.066Z,11.56
2019-05-11T02:06:03.357Z,11.45
2019-05-11T02:08:32.634Z,11.44
2019-05-11T02:11:15.535Z,11.41
2019-05-11T02:13:33.387Z,11.41
2019-05-11T02:16:02.642Z,11.47
2019-05-11T02:18:32.699Z,11.47
2019-05-11T02:21:01.949Z,11.46
2019-05-11T02:23:31.177Z,11.47
2019-05-11T02:26:00.417Z,11.44
2019-05-11T02:28:29.661Z,11.46
2019-05-11T02:30:58.923Z,11.41
2019-05-11T02:33:28.165Z,11.37
2019-05-11T02:35:57.608Z,11.49
2019-05-11T02:38:26.850Z,11.49
2019-05-11T02:40:55.906Z,11.47
2019-05-11T02:43:25.189Z,11.50
2019-05-11T02:45:54.427Z,11.42
2019-05-11T02:48:23.685Z,11.39
2019-05-11T02:50:54.466Z,11.40
2019-05-11T02:53:24.425Z,11.41
2019-05-11T02:55:54.950Z,11.37
2019-05-11T02:58:24.213Z,11.40
2019-05-11T03:00:53.445Z,11.30
2019-05-11T03:03:22.700Z,11.20
2019-05-11T03:05:51.934Z,11.15
2019-05-11T03:08:21.340Z,11.20
2019-05-11T03:10:50.600Z,11.14
2019-05-11T03:13:19.871Z,11.13
2019-05-11T03:15:49.140Z,11.23
2019-05-11T03:18:18.563Z,11.28
2019-05-11T03:20:47.795Z,11.30
2019-05-11T03:23:17.081Z,11.31
2019-05-11T03:25:46.333Z,11.34
2019-05-11T03:28:15.596Z,11.36
2019-05-11T03:30:44.881Z,11.40
2019-05-11T03:33:14.179Z,11.38
2019-05-11T03:35:43.441Z,11.34
2019-05-11T03:38:12.757Z,11.30
2019-05-11T03:40:42.009Z,11.24
2019-05-11T03:43:11.260Z,11.25
2019-05-11T03:45:40.498Z,11.29
2019-05-11T03:48:10.230Z,11.33
2019-05-11T03:50:39.523Z,11.25
2019-05-11T03:53:08.812Z,11.28
2019-05-11T03:55:38.060Z,11.34
2019-05-11T03:58:07.358Z,11.42
2019-05-11T04:00:36.612Z,11.47
2019-05-11T04:03:07.211Z,11.55
2019-05-11T04:05:36.480Z,11.59
2019-05-11T04:08:05.695Z,11.54
2019-05-11T04:10:34.939Z,11.51
2019-05-11T04:13:04.233Z,11.40
2019-05-11T04:15:33.460Z,11.32
2019-05-11T04:18:02.725Z,11.31
2019-05-11T04:20:31.948Z,11.32
2019-05-11T04:23:01.226Z,11.38
2019-05-11T04:25:30.781Z,11.44
2019-05-11T04:28:00.625Z,11.51
2019-05-11T04:30:29.886Z,11.49
2019-05-11T04:32:59.110Z,11.44
2019-05-11T04:35:28.427Z,11.40
2019-05-11T04:37:57.919Z,11.40
2019-05-11T04:40:27.138Z,11.46
2019-05-11T04:42:56.584Z,11.48
2019-05-11T04:45:26.000Z,11.52
2019-05-11T04:47:55.577Z,11.53
2019-05-11T04:50:25.163Z,11.56
2019-05-11T04:52:54.383Z,11.60
2019-05-11T04:55:23.660Z,11.62
2019-05-11T04:57:52.938Z,11.63
2019-05-11T05:00:23.500Z,11.68
2019-05-11T05:02:52.718Z,11.65
2019-05-11T05:05:21.963Z,11.70
2019-05-11T05:07:51.195Z,11.73
2019-05-11T05:10:22.311Z,11.86
2019-05-11T05:12:53.429Z,11.93
2019-05-11T05:15:22.679Z,11.91
2019-05-11T05:17:51.934Z,11.94
2019-05-11T05:20:21.178Z,11.89
2019-05-11T05:22:50.406Z,11.91
2019-05-11T05:25:19.658Z,11.93
2019-05-11T05:27:48.884Z,12.03
2019-05-11T05:30:18.434Z,12.11
2019-05-11T05:32:48.058Z,12.03
2019-05-11T05:35:17.303Z,11.97
2019-05-11T05:37:46.594Z,11.90
2019-05-11T05:40:16.309Z,11.81
2019-05-11T05:42:45.693Z,11.79
2019-05-11T05:45:18.222Z,11.83
2019-05-11T05:47:47.487Z,11.87
2019-05-11T05:50:17.203Z,11.83
2019-05-11T05:52:46.472Z,11.78
2019-05-11T05:55:15.729Z,11.62
2019-05-11T05:57:45.233Z,11.54
2019-05-11T06:00:14.929Z,11.46
2019-05-11T06:02:44.158Z,11.43
2019-05-11T06:05:13.437Z,11.38
2019-05-11T06:07:42.723Z,11.27
2019-05-11T06:10:12.735Z,11.13
2019-05-11T06:12:42.015Z,10.89
2019-05-11T06:15:11.566Z,10.74
2019-05-11T06:17:40.792Z,10.56
2019-05-11T06:20:10.244Z,10.46
2019-05-11T06:22:39.616Z,10.40
2019-05-11T06:25:08.970Z,10.37
2019-05-11T06:27:38.192Z,10.41
2019-05-11T06:30:08.401Z,10.42
2019-05-11T06:32:37.638Z,10.49
2019-05-11T06:35:07.040Z,10.55
2019-05-11T06:37:36.303Z,10.59
2019-05-11T06:40:06.099Z,10.59
2019-05-11T06:42:36.879Z,10.62
2019-05-11T06:45:06.727Z,10.62
2019-05-11T06:47:35.955Z,10.67
2019-05-11T06:50:05.368Z,10.68
2019-05-11T06:52:34.629Z,10.70
2019-05-11T06:55:04.082Z,10.75
2019-05-11T06:57:33.332Z,10.77
2019-05-11T07:00:02.571Z,10.84
2019-05-11T07:02:32.167Z,10.92
2019-05-11T07:05:01.645Z,10.99
2019-05-11T07:07:45.293Z,11.03
2019-05-11T07:10:01.918Z,11.08
2019-05-11T07:12:31.210Z,11.04
2019-05-11T07:15:00.489Z,11.09
2019-05-11T07:17:29.969Z,11.09
2019-05-11T07:19:59.217Z,11.16
2019-05-11T07:22:28.490Z,11.18
2019-05-11T07:24:57.749Z,11.22
2019-05-11T07:27:26.991Z,11.32
2019-05-11T07:29:56.271Z,11.62
2019-05-11T07:32:26.246Z,11.93
2019-05-11T07:34:57.619Z,12.20
2019-05-11T07:37:28.009Z,12.27
2019-05-11T07:39:58.051Z,12.38
2019-05-11T07:42:28.556Z,12.59
2019-05-11T07:44:58.378Z,12.90
2019-05-11T07:47:28.017Z,13.06
2019-05-11T07:49:58.040Z,13.39
2019-05-11T07:52:28.754Z,13.99
2019-05-11T07:54:58.161Z,14.68
2019-05-11T07:57:28.455Z,14.98
2019-05-11T07:59:58.049Z,14.52
2019-05-11T08:02:28.564Z,13.79
2019-05-11T08:04:58.779Z,13.13
2019-05-11T08:07:28.641Z,12.70
2019-05-11T08:09:58.829Z,12.64
2019-05-11T08:12:28.665Z,13.25
2019-05-11T08:15:08.200Z,13.73
2019-05-11T08:17:29.112Z,13.95
2019-05-11T08:19:58.408Z,13.86
2019-05-11T08:22:28.453Z,13.77
2019-05-11T08:24:58.594Z,13.65
2019-05-11T08:27:29.179Z,13.70
2019-05-11T08:29:58.410Z,13.71
2019-05-11T08:32:28.628Z,13.75
2019-05-11T08:34:58.558Z,13.70
2019-05-11T08:37:28.515Z,13.66
2019-05-11T08:39:58.564Z,13.63
2019-05-11T08:42:28.931Z,13.89
2019-05-11T08:45:15.322Z,14.40
2019-05-11T08:47:29.297Z,14.55
2019-05-11T08:49:59.099Z,14.26
2019-05-11T08:52:28.459Z,14.03
2019-05-11T08:54:57.945Z,13.98
2019-05-11T08:57:28.542Z,13.89
2019-05-11T08:59:58.082Z,13.70
2019-05-11T09:02:27.909Z,13.64
2019-05-11T09:04:58.969Z,13.75
2019-05-11T09:07:28.192Z,13.95
2019-05-11T09:09:58.628Z,14.10
2019-05-11T09:12:28.843Z,14.22
2019-05-11T09:14:58.288Z,14.42
2019-05-11T09:17:28.842Z,14.80
2019-05-11T09:19:58.299Z,14.73
2019-05-11T09:22:28.367Z,14.95
2019-05-11T09:24:58.408Z,15.07
2019-05-11T09:27:28.663Z,15.08
2019-05-11T09:29:58.753Z,15.51
2019-05-11T09:32:28.682Z,16.12
2019-05-11T09:34:58.155Z,16.49
2019-05-11T09:37:27.840Z,16.61
2019-05-11T09:39:58.355Z,16.51
2019-05-11T09:42:28.558Z,16.22
2019-05-11T09:44:58.142Z,16.08
2019-05-11T09:47:28.031Z,15.87
2019-05-11T09:49:58.237Z,15.80
2019-05-11T09:52:32.445Z,16.03
2019-05-11T09:55:02.131Z,16.21
2019-05-11T09:57:31.368Z,16.11
2019-05-11T10:00:00.620Z,15.98
2019-05-11T10:02:29.869Z,15.80
2019-05-11T10:04:59.116Z,15.86
2019-05-11T10:07:28.896Z,16.24
2019-05-11T10:09:59.342Z,16.75
2019-05-11T10:12:28.724Z,17.86
2019-05-11T10:14:59.096Z,19.67
2019-05-11T10:17:28.887Z,20.64
2019-05-11T10:19:58.485Z,22.79
2019-05-11T10:22:27.935Z,25.05
2019-05-11T10:24:58.240Z,25.62
2019-05-11T10:27:28.107Z,25.79
2019-05-11T10:29:58.927Z,24.87
2019-05-11T10:32:28.884Z,24.14
2019-05-11T10:34:58.464Z,23.31
2019-05-11T10:37:28.347Z,21.31
2019-05-11T10:39:57.852Z,20.15
2019-05-11T10:42:28.390Z,20.00
2019-05-11T10:44:58.335Z,19.74
2019-05-11T10:47:27.989Z,19.43
2019-05-11T10:49:58.006Z,19.31
2019-05-11T10:52:28.579Z,18.77
2019-05-11T10:54:58.730Z,18.17
2019-05-11T10:57:28.414Z,18.05
2019-05-11T10:59:58.120Z,17.72
2019-05-11T11:02:27.986Z,17.70
2019-05-11T11:04:58.904Z,17.52
2019-05-11T11:07:28.972Z,17.37
2019-05-11T11:09:58.483Z,17.27
2019-05-11T11:12:27.980Z,17.00
2019-05-11T11:14:59.752Z,16.89
2019-05-11T11:17:28.993Z,17.06
2019-05-11T11:19:58.269Z,17.21
2019-05-11T11:22:39.030Z,17.37
2019-05-11T11:24:58.977Z,17.27
2019-05-11T11:27:29.198Z,17.17
2019-05-11T11:29:58.621Z,17.00
2019-05-11T11:32:28.098Z,16.69
2019-05-11T11:34:57.918Z,16.60
2019-05-11T11:37:28.096Z,16.65
2019-05-11T11:39:58.100Z,16.60
2019-05-11T11:42:28.369Z,16.27
2019-05-11T11:44:58.753Z,16.05
2019-05-11T11:47:28.275Z,15.91
2019-05-11T11:49:58.408Z,15.88
2019-05-11T11:52:27.838Z,15.94
2019-05-11T11:54:58.644Z,16.01
2019-05-11T11:57:28.473Z,16.03
2019-05-11T11:59:58.698Z,16.09
2019-05-11T12:02:28.094Z,16.20
2019-05-11T12:04:58.178Z,16.46
2019-05-11T12:07:28.489Z,16.76
2019-05-11T12:09:58.740Z,17.01
2019-05-11T12:12:28.380Z,17.14
2019-05-11T12:14:58.471Z,17.30
2019-05-11T12:17:28.638Z,17.33
2019-05-11T12:19:58.694Z,17.27
2019-05-11T12:22:28.142Z,17.18
2019-05-11T12:24:58.895Z,17.25
2019-05-11T12:27:28.799Z,17.29
2019-05-11T12:29:58.357Z,17.32
2019-05-11T12:32:34.889Z,17.34
2019-05-11T12:35:04.353Z,17.30
2019-05-11T12:37:33.577Z,17.37
2019-05-11T12:40:02.831Z,17.62
2019-05-11T12:42:32.111Z,17.79
2019-05-11T12:45:01.319Z,18.07
2019-05-11T12:47:30.583Z,18.44
2019-05-11T12:49:59.832Z,18.54
2019-05-11T12:52:29.073Z,18.46
2019-05-11T12:54:58.443Z,18.38
2019-05-11T12:57:28.232Z,18.31
2019-05-11T12:59:58.294Z,18.00
2019-05-11T13:02:28.097Z,17.85
2019-05-11T13:04:58.452Z,17.72
2019-05-11T13:07:28.465Z,17.67
2019-05-11T13:09:58.152Z,17.64
2019-05-11T13:12:27.935Z,17.64
2019-05-11T13:14:58.121Z,17.65
2019-05-11T13:17:37.365Z,17.51
2019-05-11T13:19:58.947Z,17.51
2019-05-11T13:22:28.980Z,17.58
2019-05-11T13:24:58.927Z,17.47
2019-05-11T13:27:28.455Z,17.47
2019-05-11T13:29:59.210Z,17.35
2019-05-11T13:32:28.565Z,17.31
2019-05-11T13:34:58.398Z,17.31
2019-05-11T13:37:28.373Z,17.40
2019-05-11T13:39:58.023Z,17.39
2019-05-11T13:42:27.795Z,17.42
2019-05-11T13:44:58.422Z,17.27
2019-05-11T13:47:28.404Z,17.27
2019-05-11T13:49:58.420Z,16.86
2019-05-11T13:52:28.694Z,16.89
2019-05-11T13:54:58.537Z,16.71
2019-05-11T13:57:28.635Z,16.73
2019-05-11T13:59:58.215Z,16.72
2019-05-11T14:02:28.566Z,16.78
2019-05-11T14:04:58.517Z,16.69
2019-05-11T14:07:28.074Z,16.56
2019-05-11T14:09:58.860Z,16.51
2019-05-11T14:12:28.684Z,16.26
2019-05-11T14:14:59.123Z,16.28
2019-05-11T14:17:31.672Z,16.37
2019-05-11T14:19:59.828Z,16.56
2019-05-11T14:22:29.114Z,16.79
2019-05-11T14:24:58.710Z,17.04
2019-05-11T14:27:28.357Z,17.11
2019-05-11T14:29:58.227Z,17.17
2019-05-11T14:32:28.476Z,17.05
2019-05-11T14:34:58.160Z,16.76
2019-05-11T14:37:28.530Z,16.69
2019-05-11T14:39:58.462Z,17.07
2019-05-11T14:42:28.697Z,17.07
2019-05-11T14:44:58.929Z,17.14
2019-05-11T14:47:28.491Z,17.15
2019-05-11T14:49:57.989Z,17.09
2019-05-11T14:52:28.096Z,16.93
2019-05-11T14:54:58.425Z,16.84
2019-05-11T14:57:28.202Z,16.78
2019-05-11T14:59:58.609Z,16.79
2019-05-11T15:02:48.581Z,16.64
2019-05-11T15:05:19.619Z,16.58
2019-05-11T15:07:51.894Z,16.55
2019-05-11T15:10:20.010Z,16.39
2019-05-11T15:12:49.449Z,16.15
2019-05-11T15:15:19.255Z,16.17
2019-05-11T15:17:49.406Z,16.12
2019-05-11T15:20:19.214Z,16.01
2019-05-11T15:22:49.358Z,15.99
2019-05-11T15:25:20.143Z,15.20
2019-05-11T15:27:49.674Z,14.15
2019-05-11T15:30:19.443Z,13.51
2019-05-11T15:32:49.000Z,13.10
2019-05-11T15:35:18.964Z,12.91
2019-05-11T15:37:48.460Z,12.77
2019-05-11T15:40:19.495Z,12.60
2019-05-11T15:42:52.017Z,12.36
2019-05-11T15:45:21.677Z,11.98
2019-05-11T15:47:51.210Z,11.56
2019-05-11T15:50:21.206Z,11.29
2019-05-11T15:52:50.477Z,11.08
2019-05-11T15:55:20.620Z,11.09
2019-05-11T15:57:49.836Z,11.02
2019-05-11T16:00:19.817Z,11.03
2019-05-11T16:02:49.330Z,11.20
2019-05-11T16:05:18.856Z,11.09
2019-05-11T16:07:49.266Z,11.22
2019-05-11T16:10:19.163Z,11.15
2019-05-11T16:12:48.979Z,11.23
2019-05-11T16:15:19.548Z,11.38
2019-05-11T16:17:49.233Z,11.22
2019-05-11T16:20:19.713Z,11.26
2019-05-11T16:22:48.962Z,11.40
2019-05-11T16:25:19.620Z,11.53
2019-05-11T16:27:49.293Z,11.47
2019-05-11T16:30:21.512Z,11.40
2019-05-11T16:32:49.663Z,11.41
2019-05-11T16:35:19.246Z,11.39
2019-05-11T16:37:48.873Z,11.29
2019-05-11T16:40:20.856Z,11.30
2019-05-11T16:42:49.945Z,11.15
2019-05-11T16:45:23.115Z,10.99
2019-05-11T16:47:50.655Z,10.96
2019-05-11T16:50:19.888Z,10.99
2019-05-11T16:52:49.249Z,11.07
2019-05-11T16:55:18.738Z,10.88
2019-05-11T16:57:48.767Z,10.89
2019-05-11T17:00:18.780Z,10.75
2019-05-11T17:02:49.063Z,10.73
2019-05-11T17:05:26.328Z,10.91
2019-05-11T17:07:49.594Z,11.07
2019-05-11T17:10:19.055Z,11.06
2019-05-11T17:12:48.947Z,11.05
2019-05-11T17:15:19.124Z,10.93
2019-05-11T17:17:49.044Z,10.93
2019-05-11T17:20:19.294Z,10.97
2019-05-11T17:22:48.698Z,10.84
2019-05-11T17:25:19.119Z,10.61
2019-05-11T19:29:00.801Z,10.80
2019-05-11T19:31:30.337Z,10.74
2019-05-11T19:33:59.586Z,10.76
2019-05-11T19:36:28.932Z,10.83
2019-05-11T19:38:58.448Z,10.78
2019-05-11T19:41:27.998Z,10.87
2019-05-11T19:43:57.694Z,10.92
2019-05-11T19:46:28.058Z,10.89
2019-05-11T19:48:58.114Z,10.81
2019-05-11T19:51:29.084Z,10.88
2019-05-11T19:53:58.485Z,10.90
2019-05-11T19:56:28.951Z,10.86
2019-05-11T19:58:58.511Z,10.85
2019-05-11T20:01:28.012Z,10.78
2019-05-11T20:03:57.261Z,10.86
2019-05-11T20:06:28.089Z,10.84
2019-05-11T20:08:58.213Z,10.92
2019-05-11T20:11:28.033Z,10.92
2019-05-11T20:13:58.980Z,10.96
2019-05-11T20:16:28.446Z,10.88
2019-05-11T20:18:57.849Z,10.81
2019-05-11T20:21:29.107Z,10.88
2019-05-11T20:23:58.052Z,10.86
2019-05-11T20:26:28.593Z,10.84
2019-05-11T20:28:58.766Z,10.82
2019-05-11T20:31:28.167Z,10.85
2019-05-11T20:33:57.401Z,10.89
2019-05-11T20:36:26.661Z,10.88
2019-05-11T20:38:56.523Z,10.90
2019-05-11T20:41:27.867Z,10.88
2019-05-11T20:43:58.064Z,10.87
2019-05-11T20:46:27.793Z,10.82
2019-05-11T20:48:57.967Z,10.78
2019-05-11T20:51:34.168Z,10.78
2019-05-11T20:53:58.286Z,10.72
2019-05-11T20:56:28.415Z,10.70
2019-05-11T20:58:59.534Z,10.70
2019-05-11T21:01:29.089Z,10.67
2019-05-11T21:03:58.841Z,10.69
2019-05-11T21:06:29.366Z,10.69
2019-05-11T21:08:59.076Z,10.68
2019-05-11T21:11:28.312Z,10.73
2019-05-11T21:13:57.667Z,10.72
2019-05-11T21:16:26.926Z,10.68
2019-05-11T21:18:58.014Z,10.63
2019-05-11T21:21:27.897Z,10.64
2019-05-11T21:23:58.102Z,10.67
2019-05-11T21:26:28.218Z,10.68
2019-05-11T21:28:58.038Z,10.71
2019-05-11T21:31:29.095Z,10.72
2019-05-11T21:33:58.494Z,10.74
2019-05-11T21:36:28.380Z,10.82
2019-05-11T21:38:58.715Z,10.73
2019-05-11T21:41:31.001Z,10.82
2019-05-11T21:43:59.269Z,10.92
2019-05-11T21:46:28.573Z,10.99
2019-05-11T21:48:58.345Z,11.00
2019-05-11T21:51:28.596Z,11.07
2019-05-11T21:53:57.989Z,11.05
2019-05-11T21:56:28.856Z,11.07
2019-05-11T21:58:58.241Z,11.06
2019-05-11T22:01:28.078Z,11.13
2019-05-11T22:03:59.521Z,11.09
2019-05-11T22:06:30.526Z,11.05
2019-05-11T22:08:59.735Z,11.00
2019-05-11T22:11:28.986Z,10.99
2019-05-11T22:13:58.238Z,10.99
2019-05-11T22:16:29.856Z,10.99
2019-05-11T22:18:58.443Z,10.98
2019-05-11T22:21:28.507Z,11.03
2019-05-11T22:23:58.543Z,11.05
2019-05-11T22:26:28.635Z,11.10
2019-05-11T22:28:58.101Z,11.02
2019-05-11T22:31:28.010Z,10.98
2019-05-11T22:33:58.340Z,10.89
2019-05-11T22:36:28.342Z,10.84
2019-05-11T22:38:58.735Z,10.75
2019-05-11T22:41:28.210Z,10.68
2019-05-11T22:43:57.471Z,10.64
2019-05-11T22:46:28.098Z,10.74
2019-05-11T22:48:58.366Z,10.77
2019-05-11T22:51:35.112Z,10.77
2019-05-11T22:54:04.360Z,10.84
2019-05-11T22:56:33.576Z,10.90
2019-05-11T22:59:02.840Z,10.85
2019-05-11T23:01:32.902Z,10.97
2019-05-11T23:04:02.150Z,11.05
2019-05-11T23:06:31.368Z,11.06
2019-05-11T23:09:00.635Z,11.05
2019-05-11T23:11:29.887Z,11.11
2019-05-11T23:13:59.156Z,11.04
2019-05-11T23:16:28.765Z,11.07
2019-05-11T23:18:58.208Z,11.10
2019-05-11T23:21:30.021Z,11.13
2019-05-11T23:23:58.444Z,11.14
2019-05-11T23:26:28.190Z,11.21
2019-05-11T23:28:58.097Z,11.22
2019-05-11T23:31:27.997Z,11.17
2019-05-11T23:33:57.999Z,11.18
2019-05-11T23:36:27.970Z,11.22
2019-05-11T23:38:58.589Z,11.22
2019-05-11T23:41:28.814Z,11.21
2019-05-11T23:43:58.525Z,11.18
2019-05-11T23:46:28.629Z,11.20
2019-05-11T23:48:58.231Z,11.19
2019-05-11T23:51:28.335Z,11.14
2019-05-11T23:53:58.802Z,11.15
2019-05-11T23:56:28.372Z,11.17
2019-05-11T23:58:57.959Z,11.22
